createdAt,value
2018-08-19T00:02:16.689Z,15.75
2018-08-19T00:04:59.321Z,15.73
2018-08-19T00:07:28.529Z,15.71
2018-08-19T00:09:57.957Z,15.71
2018-08-19T00:12:47.396Z,15.68
2018-08-19T00:15:16.097Z,15.63
2018-08-19T00:17:46.628Z,15.62
2018-08-19T00:20:15.778Z,15.65
2018-08-19T00:22:46.146Z,15.61
2018-08-19T00:25:25.848Z,15.63
2018-08-19T00:27:55.462Z,15.62
2018-08-19T00:30:23.838Z,15.61
2018-08-19T00:32:52.252Z,15.61
2018-08-19T00:35:20.797Z,15.64
2018-08-19T00:37:50.032Z,15.69
2018-08-19T00:40:19.349Z,15.68
2018-08-19T00:42:48.704Z,15.69
2018-08-19T00:45:18.241Z,15.65
2018-08-19T00:47:48.381Z,15.70
2018-08-19T00:50:17.612Z,15.75
2018-08-19T00:52:46.784Z,15.74
2018-08-19T00:55:16.465Z,15.68
2018-08-19T00:57:50.802Z,15.60
2018-08-19T01:00:19.162Z,15.60
2018-08-19T01:02:48.533Z,15.62
2018-08-19T01:05:17.908Z,15.57
2018-08-19T01:07:47.165Z,15.52
2018-08-19T01:10:16.649Z,15.48
2018-08-19T01:12:46.044Z,15.43
2018-08-19T01:15:17.037Z,15.42
2018-08-19T01:17:46.576Z,15.39
2018-08-19T01:20:19.888Z,15.39
2018-08-19T01:22:49.504Z,15.41
2018-08-19T01:25:18.142Z,15.37
2018-08-19T01:27:46.679Z,15.42
2018-08-19T01:30:19.155Z,15.36
2018-08-19T01:32:47.766Z,15.33
2018-08-19T01:35:16.276Z,15.29
2018-08-19T01:37:45.140Z,15.28
2018-08-19T01:40:17.642Z,15.26
2018-08-19T01:42:48.849Z,15.29
2018-08-19T01:45:17.700Z,15.27
2018-08-19T01:47:46.288Z,15.26
2018-08-19T01:50:17.410Z,15.22
2018-08-19T01:52:48.304Z,15.19
2018-08-19T01:55:17.945Z,15.14
2018-08-19T01:57:47.423Z,15.11
2018-08-19T02:00:16.481Z,15.10
2018-08-19T02:03:08.964Z,15.09
2018-08-19T02:05:38.200Z,15.10
2018-08-19T02:08:06.569Z,15.10
2018-08-19T02:10:36.054Z,15.12
2018-08-19T02:13:04.419Z,15.12
2018-08-19T02:15:33.897Z,15.17
2018-08-19T02:18:05.592Z,15.19
2018-08-19T02:20:37.627Z,15.22
2018-08-19T02:23:07.549Z,15.25
2018-08-19T02:25:38.985Z,15.27
2018-08-19T02:28:08.440Z,15.27
2018-08-19T02:30:51.178Z,15.25
2018-08-19T02:33:21.397Z,15.22
2018-08-19T02:36:23.813Z,15.15
2018-08-19T02:38:52.158Z,15.08
2018-08-19T02:41:20.634Z,15.03
2018-08-19T02:43:54.301Z,14.99
2018-08-19T02:46:22.713Z,14.99
2018-08-19T02:48:51.480Z,14.95
2018-08-19T02:51:20.904Z,14.89
2018-08-19T02:53:50.305Z,14.92
2018-08-19T02:56:20.481Z,14.91
2018-08-19T02:58:49.581Z,15.01
2018-08-19T03:01:18.612Z,15.04
2018-08-19T03:03:46.966Z,15.05
2018-08-19T03:06:16.232Z,15.04
2018-08-19T03:08:50.931Z,15.12
2018-08-19T03:11:21.681Z,15.23
2018-08-19T03:13:50.944Z,15.11
2018-08-19T03:16:20.185Z,15.12
2018-08-19T03:18:50.201Z,15.02
2018-08-19T03:21:20.313Z,14.98
2018-08-19T03:23:51.994Z,14.98
2018-08-19T03:26:21.320Z,14.92
2018-08-19T03:28:50.544Z,14.91
2018-08-19T03:31:19.876Z,14.80
2018-08-19T03:33:48.217Z,14.73
2018-08-19T03:36:17.845Z,14.65
2018-08-19T03:38:46.281Z,14.66
2018-08-19T03:41:15.810Z,14.62
2018-08-19T03:43:53.231Z,14.59
2018-08-19T03:46:22.670Z,14.63
2018-08-19T03:48:52.040Z,14.62
2018-08-19T03:51:21.386Z,14.64
2018-08-19T03:53:49.832Z,14.61
2018-08-19T03:56:23.437Z,14.57
2018-08-19T03:58:57.507Z,14.55
2018-08-19T04:01:38.605Z,14.55
2018-08-19T04:04:06.990Z,14.59
2018-08-19T04:06:36.165Z,14.61
2018-08-19T04:09:06.469Z,14.64
2018-08-19T04:11:34.888Z,14.68
2018-08-19T04:14:08.685Z,14.71
2018-08-19T04:16:37.573Z,14.77
2018-08-19T04:19:10.804Z,14.73
2018-08-19T04:21:40.891Z,14.65
2018-08-19T04:24:13.339Z,14.71
2018-08-19T04:26:43.651Z,14.82
2018-08-19T04:29:17.123Z,14.84
2018-08-19T04:31:48.716Z,14.86
2018-08-19T04:34:19.425Z,14.91
2018-08-19T04:36:50.939Z,14.99
2018-08-19T04:39:20.460Z,15.05
2018-08-19T04:41:49.691Z,15.05
2018-08-19T04:44:18.925Z,15.05
2018-08-19T04:46:48.280Z,15.00
2018-08-19T04:49:17.632Z,15.01
2018-08-19T04:51:46.057Z,15.05
2018-08-19T04:54:15.661Z,15.05
2018-08-19T04:56:45.261Z,15.01
2018-08-19T04:59:14.310Z,15.01
2018-08-19T05:01:45.009Z,15.00
2018-08-19T05:04:15.473Z,15.01
2018-08-19T05:06:46.645Z,15.01
2018-08-19T05:09:16.709Z,15.05
2018-08-19T05:11:46.414Z,15.11
2018-08-19T05:14:16.229Z,15.20
2018-08-19T05:16:45.615Z,15.28
2018-08-19T05:19:16.127Z,15.38
2018-08-19T05:21:45.121Z,15.45
2018-08-19T05:24:14.860Z,15.49
2018-08-19T05:26:45.761Z,15.55
2018-08-19T05:29:14.740Z,15.61
2018-08-19T05:31:54.748Z,15.72
2018-08-19T05:34:29.545Z,15.81
2018-08-19T05:36:59.115Z,15.91
2018-08-19T05:39:27.627Z,16.07
2018-08-19T05:42:04.453Z,16.31
2018-08-19T05:44:38.117Z,16.54
2018-08-19T05:47:09.181Z,16.76
2018-08-19T05:49:39.624Z,16.91
2018-08-19T05:52:15.128Z,17.04
2018-08-19T05:54:58.109Z,17.16
2018-08-19T05:57:26.537Z,17.28
2018-08-19T05:59:55.888Z,17.39
2018-08-19T06:02:30.278Z,17.41
2018-08-19T06:05:00.534Z,17.45
2018-08-19T06:07:29.077Z,17.52
2018-08-19T06:09:57.528Z,17.63
2018-08-19T06:12:25.893Z,17.70
2018-08-19T06:14:54.249Z,17.79
2018-08-19T06:17:23.666Z,17.91
2018-08-19T06:19:52.926Z,18.02
2018-08-19T06:22:24.393Z,18.13
2018-08-19T06:24:52.760Z,18.18
2018-08-19T06:27:21.162Z,18.30
2018-08-19T06:29:51.561Z,18.38
2018-08-19T06:32:25.360Z,18.50
2018-08-19T06:34:54.828Z,18.62
2018-08-19T06:37:23.205Z,18.77
2018-08-19T06:39:52.465Z,18.87
2018-08-19T06:42:21.961Z,18.99
2018-08-19T06:44:51.341Z,19.05
2018-08-19T06:47:19.760Z,19.27
2018-08-19T06:49:54.340Z,19.37
2018-08-19T06:52:24.595Z,19.48
2018-08-19T06:54:54.040Z,19.54
2018-08-19T06:57:23.476Z,19.65
2018-08-19T06:59:51.800Z,19.78
2018-08-19T07:02:22.192Z,19.91
2018-08-19T07:04:50.751Z,20.00
2018-08-19T07:07:19.936Z,20.13
2018-08-19T07:09:48.786Z,20.25
2018-08-19T07:12:19.913Z,20.30
2018-08-19T07:14:48.532Z,20.51
2018-08-19T07:17:18.637Z,20.60
2018-08-19T07:19:47.953Z,20.57
2018-08-19T07:22:18.549Z,20.73
2018-08-19T07:24:47.801Z,20.71
2018-08-19T07:27:16.647Z,20.95
2018-08-19T07:29:47.342Z,20.96
2018-08-19T07:32:16.621Z,21.22
2018-08-19T07:34:46.998Z,21.27
2018-08-19T07:37:16.836Z,21.36
2018-08-19T07:39:50.953Z,21.54
2018-08-19T07:42:20.290Z,21.67
2018-08-19T07:44:48.795Z,21.75
2018-08-19T07:47:17.123Z,21.79
2018-08-19T07:49:46.368Z,21.82
2018-08-19T07:52:15.716Z,21.97
2018-08-19T07:54:46.360Z,22.05
2018-08-19T07:57:25.564Z,22.17
2018-08-19T07:59:53.922Z,22.40
2018-08-19T08:02:26.432Z,22.44
2018-08-19T08:04:54.895Z,22.55
2018-08-19T08:07:23.251Z,22.71
2018-08-19T08:09:51.675Z,22.86
2018-08-19T08:12:21.021Z,23.08
2018-08-19T08:14:52.181Z,23.13
2018-08-19T08:17:21.281Z,23.17
2018-08-19T08:19:55.053Z,23.24
2018-08-19T08:22:24.715Z,23.51
2018-08-19T08:24:53.263Z,23.74
2018-08-19T08:27:22.397Z,23.90
2018-08-19T08:29:50.725Z,23.97
2018-08-19T08:32:19.101Z,23.93
2018-08-19T08:34:48.300Z,23.84
2018-08-19T08:37:16.751Z,23.83
2018-08-19T08:39:45.657Z,24.01
2018-08-19T08:42:15.049Z,24.14
2018-08-19T08:44:44.807Z,24.30
2018-08-19T08:47:14.936Z,24.41
2018-08-19T08:49:46.920Z,24.74
2018-08-19T08:52:21.191Z,25.11
2018-08-19T08:54:52.474Z,25.52
2018-08-19T08:57:22.521Z,25.67
2018-08-19T08:59:52.572Z,25.76
2018-08-19T09:02:21.913Z,25.93
2018-08-19T09:04:52.261Z,25.93
2018-08-19T09:07:21.695Z,25.88
2018-08-19T09:09:51.310Z,25.85
2018-08-19T09:12:30.942Z,25.88
2018-08-19T09:14:59.312Z,25.97
2018-08-19T09:17:27.735Z,25.80
2018-08-19T09:19:57.230Z,25.78
2018-08-19T09:22:25.621Z,25.62
2018-08-19T09:24:54.869Z,25.81
2018-08-19T09:27:24.357Z,25.68
2018-08-19T09:29:52.690Z,25.53
2018-08-19T09:32:21.943Z,25.53
2018-08-19T09:34:50.445Z,25.70
2018-08-19T09:37:19.749Z,25.79
2018-08-19T09:39:48.078Z,25.92
2018-08-19T09:42:16.560Z,26.08
2018-08-19T09:44:45.721Z,26.10
2018-08-19T09:47:15.481Z,26.16
2018-08-19T09:49:45.017Z,26.29
2018-08-19T09:52:15.637Z,26.47
2018-08-19T09:54:44.997Z,26.68
2018-08-19T09:57:15.244Z,26.71
2018-08-19T09:59:45.389Z,26.56
2018-08-19T10:02:15.736Z,26.65
2018-08-19T10:04:44.805Z,26.78
2018-08-19T10:07:14.970Z,26.85
2018-08-19T10:09:44.106Z,26.85
2018-08-19T10:12:15.893Z,26.97
2018-08-19T10:14:46.721Z,27.12
2018-08-19T10:17:16.458Z,27.03
2018-08-19T10:19:45.812Z,27.21
2018-08-19T10:22:16.233Z,27.21
2018-08-19T10:24:45.585Z,27.02
2018-08-19T10:27:15.825Z,27.07
2018-08-19T10:29:46.521Z,27.08
2018-08-19T10:32:15.943Z,27.23
2018-08-19T10:34:44.909Z,27.17
2018-08-19T10:37:13.817Z,27.30
2018-08-19T10:39:43.745Z,27.58
2018-08-19T10:42:20.287Z,27.61
2018-08-19T10:44:50.476Z,27.48
2018-08-19T10:47:19.756Z,27.63
2018-08-19T10:49:57.493Z,27.54
2018-08-19T10:52:31.373Z,27.66
2018-08-19T10:55:01.133Z,27.81
2018-08-19T10:57:30.537Z,28.09
2018-08-19T10:59:59.603Z,28.29
2018-08-19T11:02:28.037Z,27.99
2018-08-19T11:04:58.349Z,28.10
2018-08-19T11:07:26.705Z,27.99
2018-08-19T11:10:13.439Z,28.23
2018-08-19T11:12:41.844Z,28.37
2018-08-19T11:15:26.180Z,28.29
2018-08-19T11:17:54.569Z,28.34
2018-08-19T11:20:29.375Z,28.07
2018-08-19T11:23:00.629Z,28.13
2018-08-19T11:25:29.827Z,28.03
2018-08-19T11:27:58.209Z,28.14
2018-08-19T11:30:26.609Z,28.29
2018-08-19T11:32:54.961Z,28.28
2018-08-19T11:35:27.267Z,28.43
2018-08-19T11:37:55.638Z,28.42
2018-08-19T11:40:24.029Z,28.54
2018-08-19T11:42:52.521Z,28.49
2018-08-19T11:45:20.878Z,28.65
2018-08-19T11:47:53.397Z,28.85
2018-08-19T11:50:21.842Z,28.96
2018-08-19T11:52:54.721Z,29.06
2018-08-19T11:55:23.105Z,29.00
2018-08-19T11:57:51.461Z,28.91
2018-08-19T12:00:20.034Z,28.94
2018-08-19T12:02:48.357Z,29.05
2018-08-19T12:05:17.214Z,29.17
2018-08-19T12:07:48.616Z,28.98
2018-08-19T12:10:16.974Z,29.03
2018-08-19T12:12:48.682Z,29.00
2018-08-19T12:15:17.241Z,28.86
2018-08-19T12:17:45.581Z,28.88
2018-08-19T12:20:16.645Z,29.08
2018-08-19T12:22:46.702Z,29.03
2018-08-19T12:25:15.957Z,29.02
2018-08-19T12:27:45.038Z,29.04
2018-08-19T12:30:14.716Z,28.98
2018-08-19T12:32:43.977Z,28.83
2018-08-19T12:35:12.726Z,28.95
2018-08-19T12:37:41.114Z,29.19
2018-08-19T12:40:09.432Z,29.42
2018-08-19T12:42:43.773Z,29.48
2018-08-19T12:45:13.933Z,29.15
2018-08-19T12:47:42.869Z,29.32
2018-08-19T12:50:15.985Z,29.13
2018-08-19T12:52:45.477Z,29.15
2018-08-19T12:55:16.503Z,29.00
2018-08-19T12:57:46.234Z,29.16
2018-08-19T13:00:26.138Z,29.42
2018-08-19T13:02:54.820Z,29.52
2018-08-19T13:05:23.541Z,29.70
2018-08-19T13:07:51.971Z,29.44
2018-08-19T13:10:20.604Z,29.29
2018-08-19T13:12:54.024Z,29.33
2018-08-19T13:15:23.293Z,29.52
2018-08-19T13:17:51.796Z,29.46
2018-08-19T13:20:20.149Z,29.35
2018-08-19T13:22:53.937Z,29.48
2018-08-19T13:25:23.367Z,29.58
2018-08-19T13:27:51.706Z,29.67
2018-08-19T13:30:20.816Z,29.67
2018-08-19T13:32:49.701Z,29.85
2018-08-19T13:35:18.521Z,29.94
2018-08-19T13:37:46.893Z,30.17
2018-08-19T13:40:16.494Z,30.24
2018-08-19T13:42:45.748Z,30.22
2018-08-19T13:45:21.350Z,30.16
2018-08-19T13:47:51.113Z,30.00
2018-08-19T13:50:19.477Z,30.07
2018-08-19T13:52:47.905Z,30.19
2018-08-19T13:55:17.858Z,30.39
2018-08-19T13:57:46.504Z,30.19
2018-08-19T14:00:23.185Z,30.24
2018-08-19T14:02:51.904Z,30.14
2018-08-19T14:05:20.245Z,29.99
2018-08-19T14:07:48.590Z,29.91
2018-08-19T14:10:17.401Z,30.07
2018-08-19T14:12:45.793Z,29.96
2018-08-19T14:15:15.343Z,29.71
2018-08-19T14:17:44.724Z,29.84
2018-08-19T14:20:13.992Z,30.03
2018-08-19T14:22:42.944Z,30.25
2018-08-19T14:25:14.221Z,30.26
2018-08-19T14:27:42.552Z,30.28
2018-08-19T14:30:12.001Z,30.40
2018-08-19T14:32:44.293Z,30.38
2018-08-19T14:35:13.556Z,30.44
2018-08-19T14:37:42.855Z,30.65
2018-08-19T14:40:15.372Z,30.59
2018-08-19T14:42:44.709Z,30.44
2018-08-19T14:45:15.440Z,30.62
2018-08-19T14:47:45.874Z,30.30
2018-08-19T14:50:18.502Z,30.71
2018-08-19T14:52:47.752Z,30.90
2018-08-19T14:55:16.187Z,30.95
2018-08-19T14:57:46.184Z,30.98
2018-08-19T15:00:16.825Z,30.97
2018-08-19T15:02:46.108Z,30.90
2018-08-19T15:05:18.355Z,31.18
2018-08-19T15:07:48.025Z,31.28
2018-08-19T15:10:23.325Z,30.99
2018-08-19T15:12:52.324Z,31.29
2018-08-19T15:15:20.888Z,31.48
2018-08-19T15:17:54.639Z,31.81
2018-08-19T15:20:28.852Z,31.88
2018-08-19T15:23:09.578Z,32.05
2018-08-19T15:25:39.025Z,31.94
2018-08-19T15:28:08.265Z,31.98
2018-08-19T15:30:39.345Z,32.24
2018-08-19T15:33:09.766Z,32.29
2018-08-19T15:35:39.917Z,32.70
2018-08-19T15:38:10.334Z,33.19
2018-08-19T15:40:41.697Z,33.21
2018-08-19T15:43:13.014Z,33.25
2018-08-19T15:45:44.805Z,33.43
2018-08-19T15:48:16.013Z,33.25
2018-08-19T15:50:46.973Z,32.69
2018-08-19T15:53:18.831Z,32.84
2018-08-19T15:55:48.220Z,32.89
2018-08-19T15:58:17.581Z,32.71
2018-08-19T16:00:46.788Z,32.26
2018-08-19T16:03:16.641Z,31.94
2018-08-19T16:05:45.878Z,31.20
2018-08-19T16:08:16.769Z,30.63
2018-08-19T16:10:46.018Z,30.58
2018-08-19T16:13:16.925Z,30.12
2018-08-19T16:15:47.041Z,29.75
2018-08-19T16:18:16.340Z,29.49
2018-08-19T16:20:49.858Z,29.39
2018-08-19T16:23:19.217Z,29.40
2018-08-19T16:25:48.581Z,29.28
2018-08-19T16:28:18.330Z,29.17
2018-08-19T16:30:47.553Z,29.13
2018-08-19T16:33:16.332Z,29.03
2018-08-19T16:35:44.991Z,28.99
2018-08-19T16:38:14.057Z,29.03
2018-08-19T16:40:43.593Z,28.87
2018-08-19T16:43:11.993Z,28.69
2018-08-19T16:45:40.354Z,28.46
2018-08-19T16:48:08.708Z,28.35
2018-08-19T16:50:37.193Z,28.31
2018-08-19T16:53:05.486Z,28.19
2018-08-19T16:55:34.001Z,28.10
2018-08-19T16:58:02.325Z,28.19
2018-08-19T17:00:30.713Z,28.09
2018-08-19T17:02:59.223Z,28.11
2018-08-19T17:05:32.390Z,28.12
2018-08-19T17:08:00.841Z,28.01
2018-08-19T17:10:30.342Z,27.90
2018-08-19T17:12:59.148Z,27.64
2018-08-19T17:15:27.799Z,27.57
2018-08-19T17:17:56.208Z,27.43
2018-08-19T17:20:25.426Z,27.34
2018-08-19T17:22:53.770Z,27.35
2018-08-19T17:25:22.098Z,27.26
2018-08-19T17:27:50.429Z,27.21
2018-08-19T17:30:19.141Z,27.18
2018-08-19T17:32:56.161Z,27.10
2018-08-19T17:35:25.505Z,26.88
2018-08-19T17:37:55.061Z,26.77
2018-08-19T17:40:23.633Z,26.72
2018-08-19T17:42:52.917Z,26.71
2018-08-19T17:45:22.273Z,26.68
2018-08-19T17:47:51.498Z,26.47
2018-08-19T17:50:24.873Z,26.29
2018-08-19T17:52:55.516Z,26.04
2018-08-19T17:55:24.449Z,25.86
2018-08-19T17:57:54.080Z,25.73
2018-08-19T18:00:23.017Z,25.60
2018-08-19T18:02:52.533Z,25.47
2018-08-19T18:05:21.041Z,25.34
2018-08-19T18:07:52.277Z,25.20
2018-08-19T18:10:20.755Z,25.04
2018-08-19T18:12:50.157Z,24.89
2018-08-19T18:15:18.654Z,24.77
2018-08-19T18:17:52.295Z,24.67
2018-08-19T18:20:24.634Z,24.52
2018-08-19T18:22:55.300Z,24.38
2018-08-19T18:25:23.937Z,24.23
2018-08-19T18:27:53.084Z,24.12
2018-08-19T18:30:27.482Z,23.99
2018-08-19T18:32:56.729Z,23.86
2018-08-19T18:35:25.134Z,23.76
2018-08-19T18:37:53.484Z,23.65
2018-08-19T18:40:32.240Z,23.51
2018-08-19T18:43:02.161Z,23.39
2018-08-19T18:45:30.644Z,23.26
2018-08-19T18:48:03.085Z,23.15
2018-08-19T18:50:31.622Z,22.98
2018-08-19T18:53:00.858Z,22.90
2018-08-19T18:55:30.195Z,22.81
2018-08-19T18:57:59.536Z,22.77
2018-08-19T19:00:28.590Z,22.70
2018-08-19T19:03:00.746Z,22.66
2018-08-19T19:05:42.046Z,22.55
2018-08-19T19:08:15.593Z,22.46
2018-08-19T19:10:54.424Z,22.42
2018-08-19T19:13:24.756Z,22.40
2018-08-19T19:15:53.100Z,22.36
2018-08-19T19:18:22.429Z,22.33
2018-08-19T19:20:55.575Z,22.32
2018-08-19T19:23:28.928Z,22.25
2018-08-19T19:25:57.458Z,22.19
2018-08-19T19:28:26.752Z,22.11
2018-08-19T19:31:01.245Z,22.01
2018-08-19T19:33:30.664Z,21.95
2018-08-19T19:36:05.734Z,21.87
2018-08-19T19:38:37.719Z,21.77
2018-08-19T19:41:09.761Z,21.64
2018-08-19T19:43:39.025Z,21.52
2018-08-19T19:46:08.236Z,21.34
2018-08-19T19:48:36.556Z,21.18
2018-08-19T19:51:05.113Z,21.10
2018-08-19T19:53:33.439Z,21.02
2018-08-19T19:56:10.857Z,20.96
2018-08-19T19:58:39.193Z,20.93
2018-08-19T20:01:07.600Z,20.91
2018-08-19T20:03:41.360Z,20.91
2018-08-19T20:06:09.683Z,20.92
2018-08-19T20:08:38.000Z,20.91
2018-08-19T20:11:13.608Z,20.88
2018-08-19T20:13:43.961Z,20.83
2018-08-19T20:16:14.452Z,20.77
2018-08-19T20:18:44.701Z,20.69
2018-08-19T20:21:22.545Z,20.56
2018-08-19T20:23:53.245Z,20.46
2018-08-19T20:26:22.153Z,20.36
2018-08-19T20:28:52.209Z,20.28
2018-08-19T20:31:20.593Z,20.23
2018-08-19T20:33:49.957Z,20.23
2018-08-19T20:36:18.543Z,20.21
2018-08-19T20:38:48.026Z,20.19
2018-08-19T20:41:16.544Z,20.16
2018-08-19T20:43:45.848Z,20.11
2018-08-19T20:46:15.109Z,20.05
2018-08-19T20:48:46.704Z,20.02
2018-08-19T20:51:15.450Z,19.98
2018-08-19T20:53:45.350Z,19.89
2018-08-19T20:56:14.745Z,19.81
2018-08-19T20:58:45.125Z,19.80
2018-08-19T21:01:20.894Z,19.75
2018-08-19T21:03:50.276Z,19.71
2018-08-19T21:06:18.700Z,19.66
2018-08-19T21:08:48.092Z,19.64
2018-08-19T21:11:16.411Z,19.60
2018-08-19T21:13:45.787Z,19.58
2018-08-19T21:16:15.865Z,19.55
2018-08-19T21:18:46.653Z,19.50
2018-08-19T21:21:16.047Z,19.46
2018-08-19T21:23:46.834Z,19.46
2018-08-19T21:26:16.489Z,19.49
2018-08-19T21:28:50.281Z,19.41
2018-08-19T21:31:19.724Z,19.34
2018-08-19T21:33:48.957Z,19.30
2018-08-19T21:36:18.092Z,19.24
2018-08-19T21:38:47.460Z,19.18
2018-08-19T21:41:16.837Z,19.09
2018-08-19T21:43:46.150Z,19.03
2018-08-19T21:46:16.904Z,19.01
2018-08-19T21:48:46.305Z,18.96
2018-08-19T21:51:17.038Z,18.89
2018-08-19T21:53:47.628Z,18.83
2018-08-19T21:56:16.952Z,18.77
2018-08-19T21:58:47.302Z,18.75
2018-08-19T22:01:26.747Z,18.74
2018-08-19T22:03:56.109Z,18.68
2018-08-19T22:06:24.584Z,18.64
2018-08-19T22:08:52.940Z,18.59
2018-08-19T22:11:21.285Z,18.52
2018-08-19T22:13:49.798Z,18.47
2018-08-19T22:16:18.219Z,18.42
2018-08-19T22:18:46.578Z,18.39
2018-08-19T22:21:17.174Z,18.35
2018-08-19T22:23:47.554Z,18.36
2018-08-19T22:26:17.371Z,18.29
2018-08-19T22:28:50.935Z,18.25
2018-08-19T22:31:27.738Z,18.24
2018-08-19T22:33:57.429Z,18.20
2018-08-19T22:36:25.802Z,18.18
2018-08-19T22:38:54.796Z,18.10
2018-08-19T22:41:25.391Z,18.06
2018-08-19T22:43:54.758Z,18.00
2018-08-19T22:46:23.225Z,17.94
2018-08-19T22:48:52.292Z,17.87
2018-08-19T22:51:20.809Z,17.84
2018-08-19T22:53:53.388Z,17.79
2018-08-19T22:56:22.408Z,17.81
2018-08-19T22:58:50.842Z,17.82
2018-08-19T23:01:19.233Z,17.84
2018-08-19T23:03:47.702Z,17.86
2018-08-19T23:06:17.181Z,17.85
2018-08-19T23:08:46.491Z,17.84
2018-08-19T23:11:15.752Z,17.86
2018-08-19T23:13:55.332Z,17.85
2018-08-19T23:16:24.671Z,17.79
2018-08-19T23:18:53.898Z,17.75
2018-08-19T23:21:23.273Z,17.63
2018-08-19T23:23:53.411Z,17.62
2018-08-19T23:26:22.671Z,17.55
2018-08-19T23:28:51.870Z,17.51
2018-08-19T23:31:21.361Z,17.50
2018-08-19T23:33:50.712Z,17.53
2018-08-19T23:36:19.940Z,17.57
2018-08-19T23:38:49.172Z,17.59
2018-08-19T23:41:18.537Z,17.57
2018-08-19T23:43:47.754Z,17.64
2018-08-19T23:48:43.992Z,17.79
2018-08-19T23:51:17.618Z,17.88
2018-08-19T23:53:46.996Z,17.89
2018-08-19T23:56:17.244Z,17.86
2018-08-19T23:58:48.844Z,17.81
